Time;durP1;ratioP1;P1;durP2;ratioP2;P2;SDS_P1;SDS_P2;PMS_P1;PMS_P2;Temp;Humidity;BMP_temperature;BMP_pressure;BME280_temperature;BME280_humidity;BME280_pressure;Samples;Min_cycle;Max_cycle;Signal;HPM_P1;HPM_P2
2022/03/20 00:00:15;;;;;;;19.23;11.02;;;6.10;54.10;;;;;;5000095;28;20030;-78
2022/03/20 00:02:41;;;;;;;22.13;12.32;;;6.00;54.10;;;;;;4968315;28;20096;-78
2022/03/20 00:05:08;;;;;;;17.73;11.57;;;6.00;54.10;;;;;;4980336;28;20669;-79
2022/03/20 00:07:34;;;;;;;22.25;11.27;;;5.90;54.10;;;;;;4954748;28;20042;-76
2022/03/20 00:10:03;;;;;;;19.30;11.52;;;5.90;54.20;;;;;;4980780;28;20040;-76
2022/03/20 00:12:29;;;;;;;22.38;10.95;;;5.90;54.30;;;;;;4989277;28;20065;-75
2022/03/20 00:14:54;;;;;;;21.42;11.65;;;5.80;54.40;;;;;;4966424;28;20070;-76
2022/03/20 00:17:23;;;;;;;23.63;12.10;;;5.80;54.40;;;;;;4978387;28;20201;-76
2022/03/20 00:19:49;;;;;;;21.52;12.38;;;5.70;54.40;;;;;;4968010;28;20081;-76
2022/03/20 00:22:15;;;;;;;21.52;12.25;;;5.70;54.40;;;;;;4998503;28;20376;-77
2022/03/20 00:24:41;;;;;;;22.60;11.82;;;5.70;54.40;;;;;;4976204;28;20069;-77
2022/03/20 00:27:10;;;;;;;19.13;11.43;;;5.60;54.50;;;;;;4966737;28;20553;-76
2022/03/20 00:29:36;;;;;;;21.25;10.77;;;5.60;54.60;;;;;;4980021;28;20071;-77
2022/03/20 00:32:02;;;;;;;18.80;11.10;;;5.50;54.70;;;;;;4980838;28;20553;-76
2022/03/20 00:34:27;;;;;;;20.65;11.80;;;5.50;54.80;;;;;;4980032;28;20031;-75
2022/03/20 00:36:53;;;;;;;20.92;12.05;;;5.50;54.80;;;;;;4982932;28;20042;-76
2022/03/20 00:39:18;;;;;;;24.00;12.82;;;5.50;54.80;;;;;;4956983;28;20089;-76
2022/03/20 00:41:44;;;;;;;23.73;11.68;;;5.40;54.90;;;;;;4988593;28;20518;-77
2022/03/20 00:44:09;;;;;;;20.52;11.98;;;5.40;55.00;;;;;;4986181;28;20399;-76
2022/03/20 00:46:35;;;;;;;20.00;11.50;;;5.40;55.00;;;;;;4986018;28;21637;-77
2022/03/20 00:49:00;;;;;;;19.83;11.27;;;5.40;55.20;;;;;;4996625;28;20561;-76
2022/03/20 00:51:26;;;;;;;24.42;12.05;;;5.30;55.30;;;;;;4982292;28;20349;-77
2022/03/20 00:53:52;;;;;;;23.83;12.20;;;5.30;55.30;;;;;;4978022;28;20043;-76
2022/03/20 00:56:17;;;;;;;24.85;12.52;;;5.30;55.30;;;;;;4980544;28;20910;-78
2022/03/20 00:58:43;;;;;;;23.33;13.13;;;5.30;55.30;;;;;;4982128;28;20046;-76
2022/03/20 01:01:10;;;;;;;21.10;11.93;;;5.30;55.30;;;;;;4980801;28;20056;-76
2022/03/20 01:03:36;;;;;;;20.38;12.32;;;5.40;55.30;;;;;;4978514;28;20045;-75
2022/03/20 01:06:01;;;;;;;23.08;12.82;;;5.30;55.30;;;;;;4978633;28;20030;-76
2022/03/20 01:08:27;;;;;;;23.08;13.55;;;5.30;55.30;;;;;;4982846;28;20560;-75
2022/03/20 01:10:53;;;;;;;29.58;13.80;;;5.30;55.30;;;;;;4978162;28;20033;-75
2022/03/20 01:13:18;;;;;;;23.40;13.15;;;5.30;55.30;;;;;;4987279;28;20045;-75
2022/03/20 01:15:44;;;;;;;23.25;13.63;;;5.30;55.30;;;;;;4967825;28;20035;-77
2022/03/20 01:18:09;;;;;;;24.55;12.90;;;5.30;55.30;;;;;;4983961;28;20049;-75
2022/03/20 01:20:35;;;;;;;25.52;13.45;;;5.30;55.30;;;;;;4998358;28;20041;-77
2022/03/20 01:23:00;;;;;;;21.00;12.52;;;5.30;55.30;;;;;;4986653;28;20810;-76
2022/03/20 01:25:26;;;;;;;26.70;13.93;;;5.30;55.30;;;;;;4985207;28;20026;-76
2022/03/20 01:27:51;;;;;;;25.42;13.85;;;5.30;55.30;;;;;;4968536;28;20021;-75
2022/03/20 01:30:18;;;;;;;26.33;14.07;;;5.30;55.40;;;;;;4991817;28;20133;-76
2022/03/20 01:32:43;;;;;;;20.15;13.05;;;5.30;55.40;;;;;;4967534;28;20032;-76
2022/03/20 01:35:09;;;;;;;24.13;13.85;;;5.30;55.40;;;;;;4980520;28;20033;-76
2022/03/20 01:37:36;;;;;;;23.10;12.18;;;5.30;55.50;;;;;;4991576;28;20045;-76
2022/03/20 01:40:03;;;;;;;23.13;13.40;;;5.40;55.60;;;;;;4976825;28;20847;-75
2022/03/20 01:42:28;;;;;;;26.15;14.45;;;5.30;55.70;;;;;;4988355;28;20052;-76
2022/03/20 01:44:54;;;;;;;23.17;12.82;;;5.40;55.80;;;;;;4963895;28;20031;-75
2022/03/20 01:47:20;;;;;;;26.63;14.77;;;5.40;56.00;;;;;;4984642;28;20042;-75
2022/03/20 01:49:46;;;;;;;25.35;15.18;;;5.40;55.90;;;;;;4963474;28;20065;-76
2022/03/20 01:52:11;;;;;;;30.02;15.77;;;5.40;55.90;;;;;;4981958;28;20058;-76
2022/03/20 01:54:44;;;;;;;25.45;14.43;;;5.40;55.90;;;;;;4992200;28;20049;-76
2022/03/20 01:57:12;;;;;;;27.88;14.52;;;5.40;55.90;;;;;;4980469;28;20034;-76
2022/03/20 01:59:37;;;;;;;27.58;15.23;;;5.40;55.90;;;;;;4987082;28;20033;-77
2022/03/20 02:02:04;;;;;;;25.88;15.27;;;5.40;55.90;;;;;;5004137;28;20037;-76
2022/03/20 02:04:30;;;;;;;28.92;15.10;;;5.40;55.90;;;;;;5007269;28;20038;-76
2022/03/20 02:06:56;;;;;;;25.75;13.93;;;5.40;55.90;;;;;;4999956;28;20126;-76
2022/03/20 02:09:21;;;;;;;26.50;15.10;;;5.40;56.00;;;;;;4966560;28;20121;-75
2022/03/20 02:11:47;;;;;;;26.48;15.27;;;5.40;56.10;;;;;;4985578;28;20141;-76
2022/03/20 02:14:13;;;;;;;25.30;15.15;;;5.40;56.00;;;;;;4989908;28;20068;-76
2022/03/20 02:16:38;;;;;;;29.15;16.15;;;5.40;56.10;;;;;;4949937;28;20463;-77
2022/03/20 02:19:07;;;;;;;26.95;15.73;;;5.50;56.10;;;;;;4982123;28;20034;-76
2022/03/20 02:21:43;;;;;;;30.13;16.52;;;5.50;56.20;;;;;;4989890;28;20360;-76
2022/03/20 02:24:40;;;;;;;32.33;15.75;;;5.50;56.20;;;;;;4986524;28;20106;-75
2022/03/20 02:27:14;;;;;;;29.60;15.13;;;5.50;56.30;;;;;;4973881;28;20492;-76
2022/03/20 02:29:40;;;;;;;29.58;15.52;;;5.50;56.20;;;;;;4998327;28;20065;-76
2022/03/20 02:32:07;;;;;;;26.55;14.65;;;5.50;56.20;;;;;;4984957;28;20033;-76
2022/03/20 02:34:33;;;;;;;24.15;14.48;;;5.50;56.30;;;;;;4975017;28;20023;-76
2022/03/20 02:36:59;;;;;;;30.73;16.42;;;5.50;56.40;;;;;;4995313;28;20042;-76
2022/03/20 02:39:24;;;;;;;26.25;14.93;;;5.50;56.40;;;;;;4981967;28;20121;-76
2022/03/20 02:41:51;;;;;;;30.63;16.60;;;5.50;56.50;;;;;;4968369;28;20410;-76
2022/03/20 02:44:17;;;;;;;27.10;15.60;;;5.50;56.60;;;;;;5004502;28;20140;-76
2022/03/20 02:46:43;;;;;;;31.60;17.05;;;5.50;56.60;;;;;;4967701;28;20047;-76
2022/03/20 02:49:09;;;;;;;28.67;16.33;;;5.50;56.60;;;;;;4994494;28;20044;-76
2022/03/20 02:51:36;;;;;;;31.98;17.85;;;5.50;56.70;;;;;;4991211;28;20037;-76
2022/03/20 02:54:02;;;;;;;32.80;16.95;;;5.50;56.70;;;;;;4964628;28;20029;-76
2022/03/20 02:56:29;;;;;;;30.98;17.10;;;5.50;56.70;;;;;;4981780;28;20034;-76
2022/03/20 02:58:55;;;;;;;32.03;17.08;;;5.50;56.90;;;;;;5014455;28;20090;-76
2022/03/20 03:01:21;;;;;;;32.70;16.90;;;5.50;56.80;;;;;;4963305;28;20030;-76
2022/03/20 03:03:46;;;;;;;28.50;16.02;;;5.50;56.80;;;;;;4972693;28;20426;-76
2022/03/20 03:06:12;;;;;;;29.30;16.90;;;5.50;56.90;;;;;;4959009;28;20045;-75
2022/03/20 03:11:30;;;;;;;31.35;16.63;;;5.50;56.90;;;;;;4980314;28;20038;-76
2022/03/20 03:13:55;;;;;;;32.25;17.75;;;5.50;56.90;;;;;;4996248;28;20116;-76
2022/03/20 03:16:21;;;;;;;32.75;17.45;;;5.50;57.00;;;;;;4967630;28;20030;-75
2022/03/20 03:18:48;;;;;;;34.95;17.73;;;5.50;57.00;;;;;;5004773;28;20050;-76
2022/03/20 03:21:15;;;;;;;31.15;17.15;;;5.50;57.10;;;;;;4965319;28;20042;-76
2022/03/20 03:23:41;;;;;;;30.48;17.55;;;5.40;57.00;;;;;;4984153;28;20088;-76
2022/03/20 03:26:07;;;;;;;36.40;17.40;;;5.40;57.00;;;;;;4987750;28;20676;-76
2022/03/20 03:28:36;;;;;;;34.92;18.15;;;5.40;57.10;;;;;;4976372;28;20486;-76
2022/03/20 03:31:08;;;;;;;34.08;18.92;;;5.40;57.20;;;;;;4982857;28;20116;-76
2022/03/20 03:33:34;;;;;;;32.53;17.77;;;5.40;57.30;;;;;;4983981;28;20061;-75
2022/03/20 03:36:01;;;;;;;34.03;17.88;;;5.40;57.30;;;;;;4958555;28;20034;-76
2022/03/20 03:38:30;;;;;;;29.95;17.60;;;5.30;57.30;;;;;;4987166;28;20062;-75
2022/03/20 03:40:55;;;;;;;34.15;18.40;;;5.30;57.40;;;;;;4973787;28;20046;-76
2022/03/20 03:43:21;;;;;;;33.95;18.70;;;5.30;57.50;;;;;;4992759;28;20022;-76
2022/03/20 03:45:47;;;;;;;37.28;18.30;;;5.30;57.50;;;;;;5016630;28;20089;-76
2022/03/20 03:48:14;;;;;;;33.38;17.23;;;5.30;57.60;;;;;;4985058;28;20491;-76
2022/03/20 03:50:41;;;;;;;35.38;18.40;;;5.30;57.60;;;;;;4964927;28;20034;-76
2022/03/20 03:53:09;;;;;;;32.75;18.95;;;5.20;57.70;;;;;;4978118;28;20120;-75
2022/03/20 03:55:35;;;;;;;31.85;18.70;;;5.20;57.70;;;;;;4973034;28;20034;-76
2022/03/20 03:58:00;;;;;;;35.42;19.05;;;5.20;57.80;;;;;;4972654;28;20496;-75
2022/03/20 04:00:27;;;;;;;35.28;19.02;;;5.20;57.90;;;;;;4993228;28;20042;-78
2022/03/20 04:02:53;;;;;;;34.40;19.50;;;5.20;57.90;;;;;;4976693;28;20049;-76
2022/03/20 04:05:18;;;;;;;31.92;18.40;;;5.10;57.90;;;;;;4988072;28;20056;-76
2022/03/20 04:07:47;;;;;;;33.08;18.42;;;5.10;58.00;;;;;;4991353;28;20034;-76
2022/03/20 04:10:13;;;;;;;31.00;17.98;;;5.10;58.20;;;;;;4987382;28;20092;-76
2022/03/20 04:12:43;;;;;;;35.90;19.55;;;5.00;58.10;;;;;;4948597;28;20077;-76
2022/03/20 04:15:12;;;;;;;34.83;19.27;;;5.10;58.30;;;;;;4977753;28;20031;-76
2022/03/20 04:17:38;;;;;;;35.97;18.52;;;5.00;58.40;;;;;;4982507;28;20398;-76
2022/03/20 04:20:06;;;;;;;31.92;18.75;;;5.00;58.40;;;;;;4981253;28;20057;-77
2022/03/20 04:22:31;;;;;;;36.45;20.00;;;5.00;59.10;;;;;;4985776;28;20031;-76
2022/03/20 04:24:57;;;;;;;34.67;19.73;;;5.00;58.60;;;;;;4967704;28;20158;-76
2022/03/20 04:27:22;;;;;;;33.35;18.85;;;4.90;58.60;;;;;;4976206;28;20384;-77
2022/03/20 04:29:48;;;;;;;35.25;20.20;;;4.90;58.60;;;;;;4978745;28;20045;-77
2022/03/20 04:32:13;;;;;;;34.80;19.67;;;4.90;58.80;;;;;;4987079;28;20037;-77
2022/03/20 04:34:40;;;;;;;34.00;20.33;;;4.90;58.90;;;;;;4980749;28;20181;-77
2022/03/20 04:37:06;;;;;;;36.88;19.73;;;4.90;58.90;;;;;;4999100;28;20073;-76
2022/03/20 04:39:33;;;;;;;38.78;21.85;;;4.90;59.00;;;;;;4976609;28;20123;-76
2022/03/20 04:41:59;;;;;;;35.95;20.25;;;4.90;59.00;;;;;;4962221;28;20212;-77
2022/03/20 04:44:25;;;;;;;37.47;20.42;;;4.80;59.00;;;;;;5001091;28;20069;-77
2022/03/20 04:46:51;;;;;;;36.63;19.60;;;4.90;59.10;;;;;;4992369;28;20518;-76
2022/03/20 05:00:13;;;;;;;36.55;19.30;;;4.80;59.40;;;;;;5007433;28;20087;-78
2022/03/20 05:02:39;;;;;;;39.75;20.02;;;4.80;59.50;;;;;;4999459;28;20772;-76
2022/03/20 05:05:05;;;;;;;37.70;20.40;;;4.80;59.50;;;;;;4989946;28;20053;-77
2022/03/20 05:07:32;;;;;;;40.63;21.38;;;4.80;59.60;;;;;;5001303;28;20026;-78
2022/03/20 05:15:29;;;;;;;38.33;20.35;;;4.70;59.80;;;;;;4999902;28;20080;-77
2022/03/20 05:17:54;;;;;;;36.17;19.40;;;4.70;59.90;;;;;;4972804;28;20058;-76
2022/03/20 05:20:23;;;;;;;37.95;19.42;;;4.60;59.90;;;;;;4987198;28;20514;-78
2022/03/20 05:22:49;;;;;;;38.25;20.75;;;4.60;60.00;;;;;;4998724;28;20042;-78
2022/03/20 05:25:14;;;;;;;35.47;19.58;;;4.60;60.30;;;;;;5002827;28;20097;-78
2022/03/20 05:27:40;;;;;;;36.97;19.33;;;4.60;60.40;;;;;;4985196;28;20045;-77
2022/03/20 05:30:07;;;;;;;33.80;18.92;;;4.50;60.50;;;;;;4994225;28;20030;-77
2022/03/20 05:32:36;;;;;;;39.00;20.42;;;4.50;60.60;;;;;;4983233;28;20038;-77
2022/03/20 05:35:05;;;;;;;33.10;19.15;;;4.50;60.70;;;;;;4982802;28;20037;-77
2022/03/20 05:37:31;;;;;;;38.25;20.23;;;4.50;60.80;;;;;;4974072;28;20034;-78
2022/03/20 05:39:57;;;;;;;36.10;20.30;;;4.40;60.80;;;;;;4954062;28;20524;-77
2022/03/20 05:42:22;;;;;;;31.95;18.48;;;4.40;60.90;;;;;;4967652;28;20033;-76
2022/03/20 05:44:48;;;;;;;33.53;18.90;;;4.40;61.10;;;;;;4988532;28;20295;-77
2022/03/20 05:47:13;;;;;;;35.45;19.75;;;4.40;61.20;;;;;;4989914;28;20174;-77
2022/03/20 05:49:39;;;;;;;35.05;18.90;;;4.40;61.40;;;;;;4994297;28;20034;-77
2022/03/20 05:52:06;;;;;;;40.67;20.45;;;4.40;61.50;;;;;;4999424;28;20034;-77
2022/03/20 05:54:32;;;;;;;41.97;21.50;;;4.40;61.60;;;;;;4997717;28;20039;-77
2022/03/20 05:59:41;;;;;;;41.72;21.85;;;4.40;61.60;;;;;;4985264;28;20122;-77
2022/03/20 06:02:10;;;;;;;36.88;20.17;;;4.50;61.60;;;;;;4987784;28;20121;-77
2022/03/20 06:04:37;;;;;;;39.70;21.33;;;4.50;61.70;;;;;;4984765;28;20038;-76
2022/03/20 06:07:03;;;;;;;39.42;21.55;;;4.40;61.70;;;;;;5002997;28;20109;-77
2022/03/20 06:09:28;;;;;;;39.58;20.67;;;4.50;61.80;;;;;;4987919;28;20256;-77
2022/03/20 06:11:54;;;;;;;39.30;21.25;;;4.50;61.80;;;;;;4992142;28;20042;-76
2022/03/20 06:14:21;;;;;;;38.55;20.77;;;4.50;61.80;;;;;;4961926;28;20113;-77
2022/03/20 06:16:48;;;;;;;40.63;22.23;;;4.60;62.00;;;;;;4990187;28;20050;-79
2022/03/20 06:19:15;;;;;;;42.55;21.73;;;4.60;61.90;;;;;;4985978;28;20038;-78
2022/03/20 06:21:41;;;;;;;46.90;24.05;;;4.60;61.90;;;;;;4978950;28;20045;-78
2022/03/20 06:24:07;;;;;;;38.28;20.83;;;4.70;62.00;;;;;;4982279;28;20056;-78
2022/03/20 06:26:34;;;;;;;43.92;21.38;;;4.70;62.10;;;;;;4989703;28;20086;-77
2022/03/20 06:29:00;;;;;;;41.67;20.92;;;4.70;62.10;;;;;;4987994;28;20049;-78
2022/03/20 06:31:26;;;;;;;36.15;20.35;;;4.80;62.20;;;;;;4988656;28;20106;-78
2022/03/20 06:33:51;;;;;;;43.13;22.40;;;4.80;62.10;;;;;;4985090;28;20039;-79
2022/03/20 06:36:17;;;;;;;38.83;21.17;;;4.90;62.10;;;;;;4963741;28;20715;-79
2022/03/20 06:38:43;;;;;;;37.28;20.23;;;4.90;62.10;;;;;;4970333;28;20537;-77
2022/03/20 06:41:08;;;;;;;38.00;21.23;;;5.00;62.10;;;;;;4990379;28;20566;-78
2022/03/20 06:43:35;;;;;;;39.15;21.58;;;5.10;62.00;;;;;;4971270;28;20030;-77
2022/03/20 06:46:01;;;;;;;44.72;23.08;;;5.10;61.90;;;;;;5011610;28;20062;-78
2022/03/20 06:48:26;;;;;;;40.20;22.02;;;5.20;61.90;;;;;;4994630;28;20037;-78
2022/03/20 06:50:52;;;;;;;38.45;20.98;;;5.30;61.90;;;;;;4961770;28;20049;-76
2022/03/20 06:53:18;;;;;;;37.83;20.13;;;5.40;61.80;;;;;;4970481;28;20026;-78
2022/03/20 06:55:44;;;;;;;37.10;21.02;;;5.50;61.80;;;;;;4972399;28;20475;-77
2022/03/20 06:58:10;;;;;;;41.85;21.65;;;5.50;61.60;;;;;;4979087;28;20107;-77
2022/03/20 07:00:36;;;;;;;35.65;20.05;;;5.60;61.60;;;;;;4978222;28;20415;-80
2022/03/20 07:03:03;;;;;;;39.00;21.90;;;5.70;61.50;;;;;;4959159;28;20041;-78
2022/03/20 07:05:29;;;;;;;33.75;19.92;;;5.80;61.40;;;;;;4956984;28;20597;-78
2022/03/20 07:07:55;;;;;;;38.35;20.80;;;5.90;61.30;;;;;;4970222;28;20038;-76
2022/03/20 07:10:21;;;;;;;34.80;19.48;;;6.00;61.20;;;;;;4982910;28;20521;-79
2022/03/20 07:12:47;;;;;;;38.03;20.15;;;6.10;61.20;;;;;;4959425;28;20074;-78
2022/03/20 07:15:12;;;;;;;34.60;19.25;;;6.20;61.20;;;;;;4975486;28;20069;-78
2022/03/20 07:17:38;;;;;;;38.35;21.45;;;6.30;61.10;;;;;;4974205;28;20117;-78
2022/03/20 07:20:09;;;;;;;37.90;21.05;;;6.40;61.00;;;;;;4986873;28;20089;-78
2022/03/20 07:22:35;;;;;;;40.13;20.83;;;6.50;60.80;;;;;;4970187;28;20042;-78
2022/03/20 07:29:29;;;;;;;38.50;20.98;;;6.70;60.60;;;;;;4985841;28;20088;-78
2022/03/20 07:30:30;;;;;;;35.63;19.88;;;6.90;60.40;;;;;;4993270;28;20102;-79
2022/03/20 07:32:55;;;;;;;33.53;20.83;;;7.00;60.20;;;;;;4996826;28;20482;-79
2022/03/20 07:35:21;;;;;;;33.85;19.85;;;7.10;60.10;;;;;;4974492;28;20634;-79
2022/03/20 07:37:46;;;;;;;37.63;21.75;;;7.30;60.00;;;;;;4999877;28;20358;-78
2022/03/20 07:40:12;;;;;;;34.17;19.85;;;7.40;59.90;;;;;;4979794;28;20120;-77
2022/03/20 07:42:38;;;;;;;39.65;21.45;;;7.50;59.80;;;;;;4979975;28;20402;-79
2022/03/20 07:45:04;;;;;;;34.50;20.30;;;7.60;59.70;;;;;;4973121;28;20050;-78
2022/03/20 07:47:30;;;;;;;33.13;19.08;;;7.80;59.50;;;;;;4976269;28;20055;-78
2022/03/20 07:49:55;;;;;;;32.53;19.13;;;7.90;59.40;;;;;;4981980;28;20478;-78
2022/03/20 07:52:22;;;;;;;32.90;17.90;;;8.00;59.30;;;;;;4983269;28;20410;-78
2022/03/20 07:54:48;;;;;;;36.30;21.10;;;8.10;59.30;;;;;;4997877;28;20042;-78
2022/03/20 07:57:14;;;;;;;35.22;19.55;;;8.20;59.10;;;;;;4988296;28;20188;-77
2022/03/20 07:59:41;;;;;;;31.35;18.30;;;8.40;58.80;;;;;;4977272;28;20060;-79
2022/03/20 08:02:06;;;;;;;33.33;19.95;;;8.50;58.70;;;;;;4967530;28;20048;-78
2022/03/20 08:04:32;;;;;;;30.85;19.23;;;8.60;58.60;;;;;;4984991;28;20045;-78
2022/03/20 08:06:57;;;;;;;34.65;19.42;;;8.70;58.30;;;;;;4979242;28;20075;-78
2022/03/20 08:09:23;;;;;;;31.10;18.27;;;8.80;58.20;;;;;;4978463;28;20443;-78
2022/03/20 08:11:49;;;;;;;32.88;19.52;;;8.90;58.00;;;;;;4972575;28;20406;-78
2022/03/20 08:14:14;;;;;;;31.38;18.52;;;9.00;57.80;;;;;;4969235;28;20417;-78
2022/03/20 08:16:41;;;;;;;29.85;17.48;;;9.10;57.70;;;;;;4978759;28;20034;-77
2022/03/20 08:19:09;;;;;;;29.02;17.67;;;9.20;57.60;;;;;;4969761;28;20080;-78
2022/03/20 08:21:35;;;;;;;30.95;18.90;;;9.40;57.40;;;;;;4973172;28;20085;-78
2022/03/20 08:24:02;;;;;;;34.13;18.75;;;9.50;57.20;;;;;;4985413;28;20089;-78
2022/03/20 08:26:31;;;;;;;32.40;18.30;;;9.60;57.00;;;;;;4962153;28;20033;-79
2022/03/20 08:28:59;;;;;;;30.50;18.38;;;9.70;56.80;;;;;;4963321;28;20038;-78
2022/03/20 08:31:25;;;;;;;29.33;18.88;;;9.90;56.70;;;;;;4965783;28;20057;-78
2022/03/20 08:33:50;;;;;;;31.98;18.13;;;10.00;56.40;;;;;;4990758;28;20162;-79
2022/03/20 08:36:16;;;;;;;26.88;17.02;;;10.10;56.20;;;;;;4980584;28;20121;-79
2022/03/20 08:38:41;;;;;;;33.80;17.92;;;10.20;56.10;;;;;;4977135;28;20109;-78
2022/03/20 08:41:07;;;;;;;30.27;18.63;;;10.30;56.70;;;;;;4975651;28;20117;-78
2022/03/20 08:43:33;;;;;;;28.92;16.95;;;10.40;55.80;;;;;;4976131;28;20087;-79
2022/03/20 08:45:58;;;;;;;31.45;17.95;;;10.60;55.70;;;;;;4997048;28;20073;-79
2022/03/20 08:48:24;;;;;;;27.92;17.70;;;10.70;55.40;;;;;;4974213;28;20621;-79
2022/03/20 08:50:49;;;;;;;26.27;16.45;;;10.90;55.10;;;;;;4984913;28;20121;-77
2022/03/20 08:53:17;;;;;;;26.55;16.40;;;11.00;54.90;;;;;;4979515;28;20042;-77
2022/03/20 08:55:43;;;;;;;28.80;16.02;;;11.10;54.70;;;;;;4963373;28;20101;-77
2022/03/20 08:58:09;;;;;;;26.40;16.73;;;11.30;54.60;;;;;;4984974;28;20046;-77
2022/03/20 09:00:35;;;;;;;27.65;17.33;;;11.40;54.30;;;;;;4984077;28;20050;-80
2022/03/20 09:03:00;;;;;;;27.58;16.88;;;11.50;54.20;;;;;;4982257;28;20042;-77
2022/03/20 09:05:26;;;;;;;28.30;17.65;;;11.70;54.20;;;;;;4985491;28;20045;-77
2022/03/20 09:07:53;;;;;;;25.33;16.40;;;11.80;53.90;;;;;;4984685;28;20057;-76
2022/03/20 09:10:19;;;;;;;25.75;16.27;;;11.90;53.60;;;;;;4967621;28;20100;-79
2022/03/20 09:12:45;;;;;;;26.60;16.88;;;12.00;53.30;;;;;;4988088;28;20026;-76
2022/03/20 09:15:12;;;;;;;27.08;17.63;;;12.20;53.30;;;;;;4986326;28;20030;-74
2022/03/20 09:20:29;;;;;;;26.90;16.60;;;12.20;52.50;;;;;;4998446;28;20442;-75
2022/03/20 09:22:55;;;;;;;27.70;17.13;;;12.20;52.80;;;;;;4985516;28;20031;-77
2022/03/20 09:25:21;;;;;;;26.33;16.17;;;12.30;52.70;;;;;;4990571;28;20049;-76
2022/03/20 09:27:48;;;;;;;27.00;17.55;;;12.50;52.60;;;;;;4981800;28;20034;-78
2022/03/20 09:30:17;;;;;;;27.15;16.67;;;12.60;52.50;;;;;;4982234;28;20042;-77
2022/03/20 09:32:43;;;;;;;26.90;16.33;;;12.80;52.30;;;;;;4976618;28;20040;-78
2022/03/20 09:35:08;;;;;;;27.40;16.73;;;12.90;52.00;;;;;;5018740;28;20124;-79
2022/03/20 09:37:35;;;;;;;25.73;16.80;;;13.10;51.80;;;;;;4998434;28;20071;-77
2022/03/20 09:40:00;;;;;;;23.73;15.63;;;13.20;51.60;;;;;;4984332;28;20716;-74
2022/03/20 09:42:26;;;;;;;24.65;15.93;;;13.30;51.50;;;;;;4980276;28;20141;-77
2022/03/20 09:44:53;;;;;;;26.15;17.40;;;13.40;51.40;;;;;;4981753;28;20074;-78
2022/03/20 09:47:19;;;;;;;26.45;16.02;;;13.60;51.20;;;;;;4962974;28;20113;-77
2022/03/20 09:49:47;;;;;;;26.20;17.88;;;13.80;50.90;;;;;;4981671;28;20094;-78
2022/03/20 09:52:13;;;;;;;30.35;17.48;;;13.90;50.60;;;;;;4986107;28;20041;-77
2022/03/20 09:54:39;;;;;;;26.42;18.30;;;14.00;50.60;;;;;;4971612;28;20051;-78
2022/03/20 09:57:05;;;;;;;28.02;17.60;;;14.10;50.30;;;;;;4976139;28;20714;-78
2022/03/20 09:59:31;;;;;;;24.40;15.52;;;14.30;50.00;;;;;;4968075;28;20565;-78
2022/03/20 10:02:08;;;;;;;24.48;15.55;;;14.40;49.80;;;;;;4957371;28;20033;-79
2022/03/20 10:04:55;;;;;;;24.13;16.45;;;14.50;49.50;;;;;;4977902;28;20038;-77
2022/03/20 10:07:22;;;;;;;23.15;15.93;;;14.70;49.10;;;;;;4986598;28;20033;-77
2022/03/20 10:10:14;;;;;;;22.52;15.98;;;14.90;49.30;;;;;;4975061;28;20057;-77
2022/03/20 10:12:43;;;;;;;27.02;17.30;;;15.00;48.50;;;;;;4958817;28;20054;-77
2022/03/20 10:15:31;;;;;;;24.83;15.93;;;15.20;48.60;;;;;;4969075;28;20530;-77
2022/03/20 10:18:20;;;;;;;23.70;15.32;;;15.30;48.40;;;;;;4993531;28;20053;-77
2022/03/20 10:20:49;;;;;;;22.88;15.63;;;15.40;47.90;;;;;;4979973;28;20030;-77
2022/03/20 10:23:36;;;;;;;27.45;16.48;;;15.60;48.20;;;;;;4973621;28;20030;-77
2022/03/20 10:26:06;;;;;;;24.85;16.60;;;15.70;47.00;;;;;;4991466;28;20518;-77
2022/03/20 10:28:40;;;;;;;28.45;16.38;;;15.80;47.30;;;;;;4969816;28;20037;-77
2022/03/20 10:31:07;;;;;;;25.08;16.75;;;15.90;47.10;;;;;;4946349;28;20043;-79
2022/03/20 10:33:35;;;;;;;21.60;14.32;;;16.00;46.90;;;;;;4980890;28;20034;-78
2022/03/20 10:36:15;;;;;;;23.42;15.63;;;16.10;46.90;;;;;;4963192;28;20132;-77
2022/03/20 10:38:41;;;;;;;23.90;14.73;;;16.30;46.40;;;;;;4961583;28;20089;-78
2022/03/20 10:41:17;;;;;;;24.88;15.82;;;16.50;46.60;;;;;;4967739;28;20105;-77
2022/03/20 10:43:43;;;;;;;22.20;14.88;;;16.70;46.70;;;;;;4974201;28;20034;-77
2022/03/20 10:46:10;;;;;;;23.67;16.13;;;16.80;46.20;;;;;;4971838;28;20434;-78
2022/03/20 10:48:39;;;;;;;21.98;15.13;;;16.80;46.10;;;;;;4992471;28;20059;-79
2022/03/20 10:51:06;;;;;;;22.95;15.88;;;16.90;46.00;;;;;;4988438;28;20030;-78
2022/03/20 10:53:32;;;;;;;25.08;16.42;;;17.10;46.10;;;;;;4961762;28;20063;-80
2022/03/20 10:56:07;;;;;;;25.85;16.75;;;17.20;45.90;;;;;;4979863;28;20121;-80
2022/03/20 10:58:36;;;;;;;22.23;14.90;;;17.40;45.70;;;;;;4979041;28;20045;-77
2022/03/20 11:01:02;;;;;;;20.17;13.73;;;17.50;45.00;;;;;;4971349;28;20061;-80
2022/03/20 11:03:27;;;;;;;23.25;15.40;;;17.60;45.10;;;;;;4978401;28;20623;-78
2022/03/20 11:05:54;;;;;;;20.55;14.25;;;17.70;45.10;;;;;;4990656;28;20522;-78
2022/03/20 11:08:20;;;;;;;21.70;15.68;;;17.80;45.10;;;;;;4987856;28;20046;-79
2022/03/20 11:10:46;;;;;;;24.80;17.50;;;18.00;44.60;;;;;;4975812;28;20073;-78
2022/03/20 11:13:15;;;;;;;23.80;16.83;;;18.10;44.30;;;;;;4976694;28;20076;-78
2022/03/20 11:15:43;;;;;;;28.23;15.88;;;18.10;43.60;;;;;;4973042;28;20060;-81
2022/03/20 11:18:08;;;;;;;25.00;16.13;;;18.10;43.70;;;;;;4965316;28;20065;-75
2022/03/20 11:20:34;;;;;;;20.00;14.38;;;18.20;43.80;;;;;;4980735;28;20654;-77
2022/03/20 11:23:01;;;;;;;21.55;14.18;;;18.40;43.60;;;;;;4995083;28;20037;-75
2022/03/20 11:25:30;;;;;;;19.85;13.70;;;18.60;43.60;;;;;;4979751;28;20124;-78
2022/03/20 11:28:01;;;;;;;27.55;13.82;;;18.80;43.40;;;;;;4956407;28;20050;-76
2022/03/20 11:30:28;;;;;;;22.45;14.57;;;19.00;43.10;;;;;;4964282;28;20117;-77
2022/03/20 11:32:56;;;;;;;20.98;12.98;;;19.30;43.00;;;;;;4975787;28;20050;-75
2022/03/20 11:35:25;;;;;;;23.55;14.48;;;19.50;42.80;;;;;;4959506;28;20682;-78
2022/03/20 11:37:54;;;;;;;19.27;13.90;;;19.70;42.40;;;;;;4975720;28;20042;-78
2022/03/20 11:40:21;;;;;;;17.55;12.98;;;19.90;42.30;;;;;;4968131;28;20069;-77
2022/03/20 11:42:48;;;;;;;19.27;13.38;;;20.10;42.00;;;;;;4987173;28;20073;-78
2022/03/20 11:45:24;;;;;;;19.88;14.02;;;20.30;41.70;;;;;;4969398;28;20053;-77
2022/03/20 11:47:52;;;;;;;18.77;12.63;;;20.50;41.40;;;;;;4970470;28;20045;-77
2022/03/20 11:50:25;;;;;;;27.70;13.75;;;20.60;41.00;;;;;;4984455;28;20502;-76
2022/03/20 11:52:58;;;;;;;22.08;14.80;;;20.80;40.80;;;;;;4993507;28;20069;-79
2022/03/20 11:55:51;;;;;;;19.63;13.90;;;20.90;39.90;;;;;;4983262;28;20625;-77
2022/03/20 11:58:16;;;;;;;19.83;13.57;;;20.90;38.70;;;;;;4987170;28;20120;-77
2022/03/20 12:00:44;;;;;;;18.95;13.32;;;21.00;39.80;;;;;;4997745;28;20145;-78
2022/03/20 12:03:12;;;;;;;17.35;12.50;;;21.00;39.70;;;;;;4973387;28;20038;-76
2022/03/20 12:05:41;;;;;;;19.33;13.50;;;21.20;39.70;;;;;;4991686;28;20038;-77
2022/03/20 12:08:29;;;;;;;21.02;14.35;;;21.40;39.50;;;;;;5001831;28;20053;-78
2022/03/20 12:11:15;;;;;;;18.60;13.48;;;21.60;38.10;;;;;;4974410;28;20038;-77
2022/03/20 12:14:16;;;;;;;20.00;14.30;;;21.70;38.30;;;;;;4985112;28;20381;-77
2022/03/20 12:16:42;;;;;;;;;;;21.80;37.60;;;;;;4965680;28;20121;-78
2022/03/20 12:19:11;;;;;;;20.83;14.52;;;21.90;38.80;;;;;;4979750;28;19941;-77
2022/03/20 12:21:55;;;;;;;20.90;14.40;;;22.00;38.50;;;;;;4985468;28;20041;-78
2022/03/20 12:24:35;;;;;;;22.65;14.23;;;22.00;37.30;;;;;;4986148;28;20648;-76
2022/03/20 12:27:22;;;;;;;23.88;15.00;;;22.20;37.30;;;;;;4994064;28;20113;-76
2022/03/20 12:30:28;;;;;;;18.83;14.40;;;22.10;36.80;;;;;;4984193;28;20041;-78
2022/03/20 12:32:58;;;;;;;21.10;13.32;;;22.10;37.10;;;;;;4984335;28;20038;-77
2022/03/20 12:35:25;;;;;;;19.30;14.05;;;22.10;37.80;;;;;;4982937;28;20382;-78
2022/03/20 12:37:52;;;;;;;20.80;13.20;;;22.20;37.50;;;;;;4994092;28;20728;-77
2022/03/20 12:40:28;;;;;;;17.80;13.20;;;22.30;37.40;;;;;;4965087;28;20099;-76
2022/03/20 12:42:57;;;;;;;17.40;13.48;;;22.40;37.00;;;;;;4993267;28;20053;-77
2022/03/20 12:45:23;;;;;;;20.02;14.48;;;22.50;37.30;;;;;;4958180;28;20088;-77
2022/03/20 12:48:06;;;;;;;19.98;13.45;;;22.50;37.00;;;;;;4983373;28;20398;-77
2022/03/20 12:50:33;;;;;;;21.58;12.48;;;22.60;36.20;;;;;;4975224;28;20398;-77
2022/03/20 12:53:14;;;;;;;20.40;14.10;;;22.60;37.00;;;;;;4980904;28;20030;-77
2022/03/20 12:55:40;;;;;;;;;;;22.80;36.70;;;;;;4992580;28;20110;-77
2022/03/20 12:58:07;;;;;;;18.75;12.88;;;23.00;37.10;;;;;;4977434;28;20354;-76
2022/03/20 13:00:35;;;;;;;18.98;13.73;;;23.00;37.10;;;;;;4979030;28;20125;-79
2022/03/20 13:03:16;;;;;;;19.33;13.70;;;23.10;37.00;;;;;;4994273;28;20749;-78